Time;durP1;ratioP1;P1;durP2;ratioP2;P2;SDS_P1;SDS_P2;PMS_P1;PMS_P2;Temp;Humidity;BMP_temperature;BMP_pressure;BME280_temperature;BME280_humidity;BME280_pressure;Samples;Min_cycle;Max_cycle;Signal;HPM_P1;HPM_P2
2021/09/08 00:03:45;;;;;;;;;;;;;;;17.43;52.32;100654.88;4363489;32;34151;-95
2021/09/08 00:06:28;;;;;;;;;;;;;;;;;;;;;
2021/09/08 00:09:48;;;;;;;;;;;;;;;17.43;53.42;100665.62;4385670;32;20004;-94
2021/09/08 00:19:06;;;;;;;;;;;;;;;17.41;52.86;100665.78;4399385;32;34810;-94
2021/09/08 00:22:17;;;;;;;;;;;;;;;17.42;52.63;100650.47;4387343;32;35188;-94
2021/09/08 00:31:42;;;;;;;;;;;;;;;17.31;52.75;100653.44;4393480;32;36429;-95
2021/09/08 00:35:12;;;;;;;;;;;;;;;16.96;54.08;100654.56;4411653;32;34393;-94
2021/09/08 00:38:09;;;;;;;;;;;;;;;;;;;;;
2021/09/08 00:50:27;;;;;;;;;;;;;;;16.95;54.49;100647.50;4403437;32;33441;-94
2021/09/08 00:53:26;;;;;;;;;;;;;;;16.96;54.42;100646.50;4404619;32;32864;-94
2021/09/08 00:59:40;;;;;;;;;;;;;;;;;;;;;
2021/09/08 01:10:08;;;;;;;;;;;;;;;16.00;56.57;100672.88;4386743;32;35282;-94
2021/09/08 01:13:18;;;;;;;;;;;;;;;16.71;55.66;100666.22;4392325;32;33939;-95
2021/09/08 01:16:08;;;;;;;;;;;;;;;16.73;55.85;100666.94;4408967;32;33251;-93
2021/09/08 01:20:02;;;;;;;;;;;;;;;16.71;56.27;100662.72;4389587;32;34005;-94
2021/09/08 01:22:34;;;;;;;;;;;;;;;16.88;55.46;100662.59;4399744;32;34812;-95
2021/09/08 01:26:18;;;;;;;;;;;;;;;16.78;55.80;100669.97;4394121;32;35075;-95
2021/09/08 01:35:24;;;;;;;;;;;;;;;16.96;55.25;100670.69;4400107;32;34635;-94
2021/09/08 01:41:31;;;;;;;;;;;;;;;;;;;;;
2021/09/08 01:47:46;;;;;;;;;;;;;;;16.62;56.38;100675.25;4368881;32;36016;-94
2021/09/08 01:58:13;;;;;;;;;;;;;;;16.84;54.75;100660.41;4349347;32;35814;-95
2021/09/08 02:04:45;;;;;;;;;;;;;;;;;;;;;
2021/09/08 02:07:39;;;;;;;;;;;;;;;16.76;55.14;100655.00;4305742;33;33706;-93
2021/09/08 02:13:55;;;;;;;;;;;;;;;;;;;;;
2021/09/08 02:20:29;;;;;;;;;;;;;;;16.68;55.13;100668.41;4304128;33;32889;-93
2021/09/08 02:29:52;;;;;;;;;;;;;;;16.45;54.65;100673.53;4300999;33;35241;-93
2021/09/08 02:36:10;;;;;;;;;;;;;;;;;;;;;
2021/09/08 02:39:00;;;;;;;;;;;;;;;16.38;55.13;100674.31;4303731;33;35187;-94
2021/09/08 02:42:10;;;;;;;;;;;;;;;;;;;;;
2021/09/08 02:48:54;;;;;;;;;;;;;;;15.75;56.92;100670.16;4340024;32;19983;-94
2021/09/08 02:58:53;;;;;;;;;;;;;;;16.28;55.62;100654.75;4403321;32;34047;-92
2021/09/08 03:01:50;;;;;;;;;;;;;;;16.35;55.50;100659.31;4403115;32;34804;-94
2021/09/08 03:04:27;;;;;;;;;;;;;;;16.20;56.35;100665.44;4413302;32;35920;-93
2021/09/08 03:08:12;;;;;;;;;;;;;;;16.34;55.57;100665.69;4407409;32;34099;-92
2021/09/08 03:10:48;;;;;;;;;;;;;;;;;;;;;
2021/09/08 03:14:00;;;;;;;;;;;;;;;;;;;;;
2021/09/08 03:17:07;;;;;;;;;;;;;;;;;;;;;
2021/09/08 03:20:06;;;;;;;;;;;;;;;;;;;;;
2021/09/08 03:27:15;;;;;;;;;;;;;;;16.10;55.88;100670.94;4377804;32;34021;-93
2021/09/08 03:30:29;;;;;;;;;;;;;;;15.88;56.52;100668.75;4365392;32;36641;-92
2021/09/08 03:37:02;;;;;;;;;;;;;;;16.03;55.80;100663.66;4377824;32;33120;-92
2021/09/08 03:39:57;;;;;;;;;;;;;;;;;;;;;
2021/09/08 03:43:46;;;;;;;;;;;;;;;15.95;55.11;100663.63;4388741;32;36094;-93
2021/09/08 03:46:43;;;;;;;;;;;;;;;15.91;54.70;100671.16;4420372;32;20004;-93
2021/09/08 03:52:50;;;;;;;;;;;;;;;15.66;56.20;100671.09;4340862;33;20037;-92
2021/09/08 04:05:14;;;;;;;;;;;;;;;15.65;56.34;100670.28;4341362;33;33997;-94
2021/09/08 04:11:47;;;;;;;;;;;;;;;15.63;56.85;100676.78;4335770;33;35557;-94
2021/09/08 04:14:35;;;;;;;;;;;;;;;;;;;;;
2021/09/08 04:18:28;;;;;;;;;;;;;;;15.49;56.68;100680.03;4354258;32;20014;-96
2021/09/08 04:21:35;;;;;;;;;;;;;;;15.66;55.94;100680.00;4351696;32;33908;-94
2021/09/08 04:31:00;;;;;;;;;;;;;;;15.53;56.01;100692.97;4371349;32;35704;-94
2021/09/08 04:34:40;;;;;;;;;;;;;;;15.47;56.95;100695.41;4358315;32;37079;-94
2021/09/08 04:44:02;;;;;;;;;;;;;;;;;;;;;
2021/09/08 04:46:57;;;;;;;;;;;;;;;;;;;;;
2021/09/08 04:50:33;;;;;;;;;;;;;;;15.54;57.29;100693.81;4267276;33;34440;-94
2021/09/08 05:00:09;;;;;;;;;;;;;;;15.56;56.97;100698.03;4239523;33;35893;-95
2021/09/08 05:03:08;;;;;;;;;;;;;;;;;;;;;
2021/09/08 05:06:12;;;;;;;;;;;;;;;;;;;;;
2021/09/08 05:15:34;;;;;;;;;;;;;;;;;;;;;
2021/09/08 05:18:39;;;;;;;;;;;;;;;;;;;;;
2021/09/08 05:21:26;;;;;;;;;;;;;;;15.76;57.31;100720.16;4313020;33;35133;-92
2021/09/08 05:28:11;;;;;;;;;;;;;;;;;;;;;
2021/09/08 05:31:16;;;;;;;;;;;;;;;;;;;;;
2021/09/08 05:34:32;;;;;;;;;;;;;;;16.01;58.60;100727.41;4325250;33;34692;-90
2021/09/08 05:46:57;;;;;;;;;;;;;;;16.03;58.63;100728.06;4347425;32;33980;-92
2021/09/08 05:50:38;;;;;;;;;;;;;;;16.51;58.23;100728.44;4357053;32;34877;-91
2021/09/08 05:54:25;;;;;;;;;;;;;;;16.36;58.56;100730.88;4348152;32;35888;-91
2021/09/08 05:57:15;;;;;;;;;;;;;;;;;;;;;
2021/09/08 06:03:34;;;;;;;;;;;;;;;;;;;;;
2021/09/08 06:07:29;;;;;;;;;;;;;;;;;;;;;
2021/09/08 06:30:22;;;;;;;;;;;;;;;18.06;54.78;100719.44;4294104;33;36541;-91
2021/09/08 06:50:29;;;;;;;;;;;;;;;18.32;50.97;100725.50;4277344;33;34074;-91
2021/09/08 06:59:07;;;;;;;;;;;;;;;18.91;49.23;100722.28;4268319;33;34825;-95
2021/09/08 07:05:21;;;;;;;;;;;;;;;19.61;46.54;100723.09;4314513;33;33077;-92
2021/09/08 07:08:49;;;;;;;;;;;;;;;;;;;;;
2021/09/08 07:12:23;;;;;;;;;;;;;;;;;;;;;
2021/09/08 07:26:03;;;;;;;;;;;;;;;;;;;;;
2021/09/08 07:42:44;;;;;;;;;;;;;;;;;;;;;
2021/09/08 07:56:20;;;;;;;;;;;;;;;;;;;;;
2021/09/08 08:11:47;;;;;;;;;;;;;;;22.51;38.17;100716.34;4287839;33;34499;-91
2021/09/08 08:28:31;;;;;;;;;;;;;;;;;;;;;
2021/09/08 08:31:25;;;;;;;;;;;;;;;23.13;35.28;100725.22;4331503;33;35356;-89
2021/09/08 08:47:51;;;;;;;;;;;;;;;24.40;33.44;100725.91;4260851;33;34149;-88
2021/09/08 09:17:26;;;;;;;;;;;;;;;25.22;33.69;100722.41;4263617;33;34305;-90
2021/09/08 09:28:11;;;;;;;;;;;;;;;25.76;29.92;100711.00;4273318;33;34050;-89
2021/09/08 09:31:16;;;;;;;;;;;;;;;24.62;29.28;100711.03;4269678;33;35046;-90
2021/09/08 09:34:09;;;;;;;;;;;;;;;25.67;28.96;100707.69;4273351;33;35516;-89
2021/09/08 09:37:26;;;;;;;;;;;;;;;;;;;;;
2021/09/08 09:41:46;;;;;;;;;;;;;;;;;;;;;
2021/09/08 09:44:29;;;;;;;;;;;;;;;;;;;;;
2021/09/08 09:48:03;;;;;;;;;;;;;;;26.06;29.92;100696.53;4342014;32;34847;-93
2021/09/08 09:50:54;;;;;;;;;;;;;;;26.21;29.42;100688.00;4369762;32;35399;-93
2021/09/08 09:53:58;;;;;;;;;;;;;;;26.03;30.98;100683.34;4359122;32;34346;-95
2021/09/08 10:00:49;;;;;;;;;;;;;;;26.22;28.56;100685.06;4310243;33;35368;-94
2021/09/08 10:03:56;;;;;;;;;;;;;;;26.29;27.85;100679.53;4315659;33;34947;-95
2021/09/08 10:10:33;;;;;;;;;;;;;;;;;;;;;
2021/09/08 10:17:34;;;;;;;;;;;;;;;;;;;;;
2021/09/08 10:31:43;;;;;;;;;;;;;;;;;;;;;
2021/09/08 10:38:36;;;;;;;;;;;;;;;;;;;;;
2021/09/08 10:52:46;;;;;;;;;;;;;;;27.71;26.90;100647.75;4307251;33;33459;-94
2021/09/08 11:13:29;;;;;;;;;;;;;;;26.78;26.63;100633.09;4255360;33;34092;-92
2021/09/08 11:26:36;;;;;;;;;;;;;;;;;;;;;
2021/09/08 11:40:47;;;;;;;;;;;;;;;27.26;24.52;100616.47;4292000;33;34948;-92
2021/09/08 11:43:31;;;;;;;;;;;;;;;27.18;24.26;100619.53;4307860;33;33838;-95
2021/09/08 12:00:20;;;;;;;;;;;;;;;30.72;20.75;100584.97;4250073;33;36039;-91
2021/09/08 12:10:38;;;;;;;;;;;;;;;31.29;19.51;100579.84;4297575;33;33546;-92
2021/09/08 12:35:02;;;;;;;;;;;;;;;33.29;19.68;100556.34;4358018;32;33710;-94
2021/09/08 12:37:29;;;;;;;;;;;;;;;31.58;18.79;100556.47;4367832;32;34276;-92
2021/09/08 12:49:12;;;;;;;;;;;;;;;;;;;;;
2021/09/08 12:52:31;;;;;;;;;;;;;;;31.24;19.86;100544.06;4308748;33;34303;-93
2021/09/08 13:11:54;;;;;;;;;;;;;;;29.36;21.00;100509.00;4265378;33;35269;-92
2021/09/08 13:31:01;;;;;;;;;;;;;;;;;;;;;
2021/09/08 13:37:27;;;;;;;;;;;;;;;;;;;;;
2021/09/08 13:55:31;;;;;;;;;;;;;;;30.82;21.51;100458.69;4286159;33;33942;-94
2021/09/08 13:58:57;;;;;;;;;;;;;;;30.35;20.45;100454.00;4300100;33;33542;-93
2021/09/08 14:25:36;;;;;;;;;;;;;;;29.07;20.69;100421.62;4233230;33;36712;-94
2021/09/08 14:32:08;;;;;;;;;;;;;;;;;;;;;
2021/09/08 14:42:45;;;;;;;;;;;;;;;30.43;19.67;100404.13;4231656;33;35610;-94
2021/09/08 14:56:24;;;;;;;;;;;;;;;29.98;20.19;100395.31;4217821;33;35202;-93
2021/09/08 15:12:14;;;;;;;;;;;;;;;;;;;;;
2021/09/08 15:24:47;;;;;;;;;;;;;;;28.75;20.94;100373.91;4250652;33;35673;-96
2021/09/08 16:32:53;;;;;;;;;;;;;;;29.24;21.98;100319.13;4403125;32;20057;-95
2021/09/08 16:35:46;;;;;;;;;;;;;;;28.43;22.41;100318.87;4413402;32;33212;-96
2021/09/08 16:44:39;;;;;;;;;;;;;;;28.23;23.37;100318.47;4382836;32;31813;-95
2021/09/08 16:47:43;;;;;;;;;;;;;;;27.85;23.59;100318.28;4357424;32;34833;-96
2021/09/08 16:50:28;;;;;;;;;;;;;;;28.24;25.05;100311.13;4360303;32;35025;-95
2021/09/08 16:53:14;;;;;;;;;;;;;;;28.34;26.79;100314.06;4363831;32;35223;-94
2021/09/08 16:55:58;;;;;;;;;;;;;;;28.26;27.06;100309.81;4367519;32;33019;-96
2021/09/08 16:58:45;;;;;;;;;;;;;;;28.18;28.61;100312.09;4353232;32;33801;-95
2021/09/08 17:01:30;;;;;;;;;;;;;;;28.06;28.95;100308.59;4322357;33;34039;-96
2021/09/08 17:04:19;;;;;;;;;;;;;;;27.88;29.31;100312.34;4382617;32;34726;-96
2021/09/08 17:07:03;;;;;;;;;;;;;;;27.67;30.12;100310.22;4394843;32;32462;-96
2021/09/08 17:09:49;;;;;;;;;;;;;;;27.44;30.50;100310.31;4383677;32;33219;-96
2021/09/08 17:12:32;;;;;;;;;;;;;;;27.33;30.61;100313.88;4379451;32;35697;-95
2021/09/08 17:15:20;;;;;;;;;;;;;;;27.16;30.91;100311.28;4354780;32;34619;-96
2021/09/08 17:18:07;;;;;;;;;;;;;;;26.95;31.82;100320.88;4399141;32;33703;-96
2021/09/08 17:21:06;;;;;;;;;;;;;;;26.79;32.02;100318.03;4384495;32;33898;-94
2021/09/08 17:23:56;;;;;;;;;;;;;;;26.59;32.56;100323.00;4379547;32;35724;-94
2021/09/08 17:27:09;;;;;;;;;;;;;;;26.38;33.50;100327.06;4385700;32;36007;-96
2021/09/08 17:29:54;;;;;;;;;;;;;;;26.18;33.29;100326.53;4379112;32;34018;-96
2021/09/08 17:33:02;;;;;;;;;;;;;;;26.00;34.35;100326.56;1430623;27;20243;31
2021/09/08 17:35:48;;;;;;;;;;;;;;;25.51;31.55;100325.91;4362624;32;35040;-93
2021/09/08 17:38:43;;;;;;;;;;;;;;;25.62;34.80;100330.59;4337418;33;35065;-96
2021/09/08 17:41:29;;;;;;;;;;;;;;;25.49;34.62;100336.22;4356365;32;32275;-90
2021/09/08 17:44:17;;;;;;;;;;;;;;;25.37;35.09;100338.00;4367717;32;33861;-90
2021/09/08 17:47:02;;;;;;;;;;;;;;;25.13;36.35;100338.87;4359490;32;36238;-90
2021/09/08 17:49:48;;;;;;;;;;;;;;;25.01;35.95;100335.22;4367117;32;35350;-90
2021/09/08 17:52:57;;;;;;;;;;;;;;;24.81;36.10;100342.72;4367320;32;32489;-90
2021/09/08 17:55:49;;;;;;;;;;;;;;;24.69;35.78;100341.78;4403670;32;34179;-91
2021/09/08 17:58:32;;;;;;;;;;;;;;;24.53;36.18;100348.56;4384436;32;35438;-89
2021/09/08 18:01:21;;;;;;;;;;;;;;;24.40;36.48;100337.81;4400812;32;34451;-89
2021/09/08 18:04:05;;;;;;;;;;;;;;;24.35;36.69;100344.94;4414402;32;33211;-89
2021/09/08 18:07:07;;;;;;;;;;;;;;;24.10;36.99;100349.50;4398768;32;35792;-89
2021/09/08 18:54:29;;;;;;;;;;;;;;;21.87;39.96;100384.22;4421238;32;34135;-90
2021/09/08 19:00:16;;;;;;;;;;;;;;;21.87;38.91;100386.94;4439518;32;35123;-89
2021/09/08 19:03:17;;;;;;;;;;;;;;;21.62;38.67;100385.72;4392370;32;35566;-88
2021/09/08 19:09:35;;;;;;;;;;;;;;;21.39;39.09;100392.47;4347063;32;33903;-89
2021/09/08 19:16:07;;;;;;;;;;;;;;;21.18;39.46;100390.66;4332978;33;35336;-88
2021/09/08 19:44:12;;;;;;;;;;;;;;;20.22;41.75;100399.56;4425048;32;20048;-94
2021/09/08 19:46:59;;;;;;;;;;;;;;;20.10;42.94;100403.75;4420835;32;33407;-93
2021/09/08 19:49:29;;;;;;;;;;;;;;;20.02;43.01;100400.31;4401513;32;35215;-93
2021/09/08 19:51:58;;;;;;;;;;;;;;;19.99;43.57;100398.81;4389462;32;34600;-94
2021/09/08 19:54:33;;;;;;;;;;;;;;;20.20;42.75;100395.38;4431489;32;32587;-90
2021/09/08 19:57:03;;;;;;;;;;;;;;;20.22;41.36;100394.16;4430612;32;35133;-92
2021/09/08 19:59:51;;;;;;;;;;;;;;;20.09;41.43;100406.69;4405657;32;34861;-92
2021/09/08 20:02:28;;;;;;;;;;;;;;;19.91;41.47;100401.62;4413209;32;35013;-91
2021/09/08 20:05:00;;;;;;;;;;;;;;;19.81;41.75;100400.28;4431122;32;32932;-91
2021/09/08 20:07:34;;;;;;;;;;;;;;;19.51;42.86;100399.44;4414062;32;32899;-92
2021/09/08 20:10:11;;;;;;;;;;;;;;;19.40;43.57;100399.06;4431455;32;34663;-91
2021/09/08 20:13:01;;;;;;;;;;;;;;;19.38;43.92;100391.19;4406795;32;35615;-94
2021/09/08 20:15:32;;;;;;;;;;;;;;;19.46;42.62;100399.16;4414100;32;33138;-92
2021/09/08 20:18:01;;;;;;;;;;;;;;;19.29;43.20;100400.38;4415674;32;33045;-93
2021/09/08 20:20:32;;;;;;;;;;;;;;;18.99;44.68;100395.94;4402792;32;34403;-94
2021/09/08 20:23:05;;;;;;;;;;;;;;;19.21;43.66;100399.63;4432143;32;35721;-93
2021/09/08 20:25:33;;;;;;;;;;;;;;;19.24;42.97;100405.50;4415856;32;34474;-92
2021/09/08 20:28:28;;;;;;;;;;;;;;;19.16;43.41;100402.84;4409684;32;33902;-93
2021/09/08 20:30:57;;;;;;;;;;;;;;;19.02;43.39;100400.13;4415182;32;34959;-93
2021/09/08 20:33:26;;;;;;;;;;;;;;;18.90;44.12;100401.59;4407063;32;35562;-92
2021/09/08 20:36:01;;;;;;;;;;;;;;;18.61;45.14;100407.72;4432883;32;33647;-93
2021/09/08 20:38:30;;;;;;;;;;;;;;;18.31;46.73;100405.94;4413109;32;34053;-91
2021/09/08 20:40:58;;;;;;;;;;;;;;;18.78;44.80;100403.06;4429769;32;34949;-94
2021/09/08 20:43:26;;;;;;;;;;;;;;;18.75;44.44;100403.41;4410395;32;34305;-92
2021/09/08 20:45:55;;;;;;;;;;;;;;;18.69;44.25;100406.84;4400577;32;32202;-92
2021/09/08 20:48:24;;;;;;;;;;;;;;;18.38;45.33;100406.91;4403182;32;34058;-92
2021/09/08 20:50:57;;;;;;;;;;;;;;;18.55;44.62;100415.69;4403593;32;34474;-92
2021/09/08 20:53:29;;;;;;;;;;;;;;;18.47;44.60;100413.06;4432514;32;34358;-93
2021/09/08 20:55:57;;;;;;;;;;;;;;;18.34;44.97;100420.91;4413743;32;33702;-93
2021/09/08 20:58:27;;;;;;;;;;;;;;;18.10;45.90;100418.31;4432099;32;33872;-92
2021/09/08 21:00:56;;;;;;;;;;;;;;;17.81;47.70;100420.84;4432703;32;35396;-93
2021/09/08 21:03:23;;;;;;;;;;;;;;;17.91;47.42;100429.53;4416617;32;33850;-91
2021/09/08 21:05:53;;;;;;;;;;;;;;;17.96;47.36;100422.59;4415316;32;33022;-91
2021/09/08 21:08:20;;;;;;;;;;;;;;;18.18;45.95;100423.66;4423479;32;33127;-94
2021/09/08 21:10:47;;;;;;;;;;;;;;;17.98;46.30;100423.28;4414712;32;34342;-91
2021/09/08 21:13:24;;;;;;;;;;;;;;;17.82;47.35;100417.97;4406490;32;33267;-89
2021/09/08 21:15:54;;;;;;;;;;;;;;;18.00;46.99;100418.56;4406688;32;34412;-90
2021/09/08 21:18:22;;;;;;;;;;;;;;;18.03;46.06;100412.00;4416931;32;34322;-88
2021/09/08 21:20:53;;;;;;;;;;;;;;;17.75;46.70;100421.53;4408806;32;35559;-92
2021/09/08 21:23:21;;;;;;;;;;;;;;;17.75;47.79;100416.13;4400390;32;35147;-88
2021/09/08 21:25:51;;;;;;;;;;;;;;;17.77;47.32;100416.81;4434301;32;33405;-88
2021/09/08 21:28:38;;;;;;;;;;;;;;;17.96;46.66;100416.41;4421348;32;34951;-91
2021/09/08 21:31:08;;;;;;;;;;;;;;;17.96;46.03;100413.69;4415643;32;35166;-95
2021/09/08 21:33:37;;;;;;;;;;;;;;;17.69;46.88;100409.59;4402674;32;35198;-94
2021/09/08 21:36:04;;;;;;;;;;;;;;;17.74;46.44;100409.94;4432827;32;33166;-92
2021/09/08 21:38:33;;;;;;;;;;;;;;;17.70;46.76;100405.06;4403508;32;33949;-90
2021/09/08 21:41:00;;;;;;;;;;;;;;;17.58;47.28;100412.69;4428851;32;34535;-92
2021/09/08 21:43:28;;;;;;;;;;;;;;;17.40;48.64;100402.31;4404248;32;34627;-90
2021/09/08 21:45:55;;;;;;;;;;;;;;;17.52;48.33;100402.63;4406335;32;33766;-90
2021/09/08 21:48:22;;;;;;;;;;;;;;;17.67;47.12;100400.88;4402748;32;34040;-91
2021/09/08 21:50:58;;;;;;;;;;;;;;;17.57;47.50;100407.50;4414437;32;36420;-91
2021/09/08 21:53:27;;;;;;;;;;;;;;;17.51;47.46;100409.00;4412835;32;35353;-95
2021/09/08 21:55:56;;;;;;;;;;;;;;;17.32;47.89;100399.63;4417028;32;34002;-91
2021/09/08 21:58:23;;;;;;;;;;;;;;;17.22;48.68;100401.66;4408300;32;34613;-90
2021/09/08 22:00:51;;;;;;;;;;;;;;;17.26;49.29;100403.84;4406498;32;33971;-91
2021/09/08 22:03:22;;;;;;;;;;;;;;;17.50;48.29;100406.50;4432376;32;34410;-91
2021/09/08 22:05:49;;;;;;;;;;;;;;;17.56;47.61;100408.47;4400596;32;33754;-90
2021/09/08 22:08:18;;;;;;;;;;;;;;;17.44;47.41;100400.97;4416842;32;33217;-91
2021/09/08 22:10:46;;;;;;;;;;;;;;;17.56;46.55;100403.09;4431625;32;35237;-91
2021/09/08 22:13:16;;;;;;;;;;;;;;;17.45;47.01;100400.78;4431455;32;34462;-91
2021/09/08 22:15:44;;;;;;;;;;;;;;;17.31;47.30;100398.81;4415855;32;33181;-91
2021/09/08 22:18:12;;;;;;;;;;;;;;;17.17;48.26;100402.19;4415403;32;34091;-92
2021/09/08 22:20:39;;;;;;;;;;;;;;;17.06;48.90;100402.53;4414054;32;34873;-91
2021/09/08 22:23:07;;;;;;;;;;;;;;;17.17;48.71;100398.69;4414399;32;35338;-94
2021/09/08 22:25:35;;;;;;;;;;;;;;;17.01;49.42;100401.38;4432146;32;33738;-92
2021/09/08 22:28:02;;;;;;;;;;;;;;;17.08;49.16;100397.00;4431107;32;33723;-93
2021/09/08 22:30:29;;;;;;;;;;;;;;;16.73;49.28;100397.38;4406124;32;35428;-91
2021/09/08 22:32:59;;;;;;;;;;;;;;;16.53;49.76;100398.72;4416058;32;35309;-94
2021/09/08 22:35:26;;;;;;;;;;;;;;;16.67;50.46;100400.72;4405171;32;32900;-91
2021/09/08 22:37:56;;;;;;;;;;;;;;;16.90;50.13;100396.37;4415374;32;33098;-90
2021/09/08 22:40:25;;;;;;;;;;;;;;;16.76;51.05;100397.03;4416650;32;35813;-91
2021/09/08 22:42:53;;;;;;;;;;;;;;;16.87;50.88;100400.22;4400492;32;34123;-91
2021/09/08 22:45:21;;;;;;;;;;;;;;;16.89;50.54;100400.06;4414323;32;32603;-91
2021/09/08 22:47:50;;;;;;;;;;;;;;;16.78;50.50;100393.19;4414469;32;34084;-90
2021/09/08 22:50:17;;;;;;;;;;;;;;;16.62;51.49;100401.22;4402585;32;34544;-91
2021/09/08 22:52:46;;;;;;;;;;;;;;;16.86;50.38;100395.00;4401094;32;35889;-91
2021/09/08 22:55:14;;;;;;;;;;;;;;;16.78;50.36;100403.94;4414451;32;33866;-91
2021/09/08 22:57:43;;;;;;;;;;;;;;;16.74;50.60;100393.69;4431518;32;33386;-90
2021/09/08 23:00:12;;;;;;;;;;;;;;;16.68;51.20;100395.19;4413692;32;34533;-93
2021/09/08 23:02:39;;;;;;;;;;;;;;;16.75;50.76;100401.59;4401201;32;34146;-92
2021/09/08 23:05:07;;;;;;;;;;;;;;;16.68;50.85;100397.88;4414987;32;33803;-92
2021/09/08 23:07:37;;;;;;;;;;;;;;;16.63;51.30;100399.41;4415855;32;33786;-93
2021/09/08 23:10:07;;;;;;;;;;;;;;;16.78;50.86;100395.88;4417481;32;34907;-92
2021/09/08 23:12:36;;;;;;;;;;;;;;;16.79;50.54;100402.91;4402188;32;34659;-92
2021/09/08 23:15:04;;;;;;;;;;;;;;;16.66;50.13;100394.53;4431099;32;34459;-91
2021/09/08 23:17:33;;;;;;;;;;;;;;;16.63;50.63;100394.03;4397976;32;33068;-93
2021/09/08 23:20:02;;;;;;;;;;;;;;;16.56;51.61;100393.00;4401851;32;35258;-91
2021/09/08 23:22:30;;;;;;;;;;;;;;;16.65;50.59;100392.87;4417673;32;36453;-92
2021/09/08 23:24:58;;;;;;;;;;;;;;;16.48;50.90;100388.50;4431209;32;33158;-90
2021/09/08 23:27:26;;;;;;;;;;;;;;;16.41;51.08;100392.03;4415362;32;34315;-92
2021/09/08 23:29:54;;;;;;;;;;;;;;;16.36;51.26;100391.62;4416505;32;34785;-92
2021/09/08 23:32:22;;;;;;;;;;;;;;;16.32;51.35;100395.66;4431408;32;33982;-92
2021/09/08 23:34:50;;;;;;;;;;;;;;;16.38;51.31;100390.50;4414984;32;31474;-91
2021/09/08 23:37:18;;;;;;;;;;;;;;;16.36;51.13;100394.31;4401746;32;33528;-94
2021/09/08 23:39:47;;;;;;;;;;;;;;;16.21;51.91;100385.22;4432093;32;35241;-93
2021/09/08 23:42:16;;;;;;;;;;;;;;;16.28;51.77;100388.94;4400890;32;35018;-90
2021/09/08 23:44:44;;;;;;;;;;;;;;;16.24;51.94;100390.28;4403816;32;32913;-92
2021/09/08 23:47:12;;;;;;;;;;;;;;;16.32;51.57;100393.81;4401588;32;34468;-91
2021/09/08 23:49:41;;;;;;;;;;;;;;;16.30;51.75;100389.59;4414705;32;34510;-93
2021/09/08 23:52:08;;;;;;;;;;;;;;;16.25;51.86;100389.28;4407144;32;35481;-93
2021/09/08 23:54:38;;;;;;;;;;;;;;;16.27;51.72;100382.75;4431626;32;33387;-91
2021/09/08 23:57:05;;;;;;;;;;;;;;;16.26;51.92;100389.09;4431064;32;34693;-90
2021/09/08 23:59:33;;;;;;;;;;;;;;;16.09;52.31;100383.88;4409560;32;33513;-91
